Portada
METAR-TAF:

METAR-TAF

Aeropuertos :

Aeropuerto Internacional de Baréin

Baréin, Bahréin

latitud: 26-16N, longitud: 050-39E, altitud: 2 m

Observación

El informe se hizo hace 11 minutos, a las 16:30 UTC
Viento 15 kt del norte-noroeste
Temperatura 22°C
Humedad 65%
Presión 1015 hPa
Visibilidad 10 km o más
Escasas nubes a una altura de 2500 ft

METAR: OBBI 111630Z 33015KT 9999 FEW025 22/15 Q1015 NOSIG

Hora: 19:41 (16:41 UTC)

Pronóstico

El informe se hizo hace 5 horas y 41 minutos, a las 11:00 UTC
Pronóstico válido del 11 a las 12 UTC al 12 a las 18 UTC
Viento 13 kt del norte-noroeste
Visibilidad 10 km o más
Nubes dispersas a una altura de 3000 ft

TAF: OBBI 111100Z 1112/1218 33013KT 9999 SCT030

Observaciones y pronósticos meteorológicos de más de 4000 aeropuertos (mensajes METAR y TAF).

Los puntos amarillos y rojos representan las estaciones disponibles.

Ponga el ratón en el punto deseado para ver el nombre de la estación.

Haga clic para ver las observaciones y los pronósticos meteorológicos.

Para cambiar el mapa : haga clic en los botones verdes con una cruz de color negro para hacer un zoom, en el botón verde con un guión para alejar o en las flechas verdes para mapas adyacentes.


METAR-TAF: